Time;durP1;ratioP1;P1;durP2;ratioP2;P2;SDS_P1;SDS_P2;PMS_P1;PMS_P2;Temp;Humidity;BMP_temperature;BMP_pressure;BME280_temperature;BME280_humidity;BME280_pressure;Samples;Min_cycle;Max_cycle;Signal;HPM_P1;HPM_P2
2022/03/08 00:00:02;;;;;;;10.67;8.87;;;;;;;;;;5032619;28;20236;-85
2022/03/08 00:02:29;;;;;;;11.70;8.50;;;;;;;;;;5033408;28;20208;-84
2022/03/08 00:04:56;;;;;;;11.53;8.90;;;;;;;;;;5032762;28;20584;-84
2022/03/08 00:07:25;;;;;;;11.73;8.93;;;;;;;;;;5033663;28;20234;-84
2022/03/08 00:09:52;;;;;;;14.93;9.00;;;;;;;;;;5032762;28;20679;-85
2022/03/08 00:12:19;;;;;;;12.80;8.93;;;;;;;;;;5033018;28;20207;-84
2022/03/08 00:14:46;;;;;;;12.27;9.13;;;;;;;;;;5031921;28;20199;-84
2022/03/08 00:17:13;;;;;;;16.63;9.30;;;;;;;;;;5033525;28;20202;-84
2022/03/08 00:19:40;;;;;;;10.13;8.57;;;;;;;;;;5033007;28;20213;-84
2022/03/08 00:22:07;;;;;;;15.00;9.23;;;;;;;;;;5034625;28;20230;-84
2022/03/08 00:24:36;;;;;;;14.40;8.67;;;;;;;;;;5033580;28;20230;-84
2022/03/08 00:27:03;;;;;;;15.63;10.47;;;;;;;;;;5034778;28;20229;-84
2022/03/08 00:29:30;;;;;;;16.37;9.73;;;;;;;;;;5039181;28;20775;-84
2022/03/08 00:31:57;;;;;;;15.27;9.17;;;;;;;;;;5032706;28;20293;-84
2022/03/08 00:34:24;;;;;;;12.63;9.00;;;;;;;;;;5033136;28;20210;-84
2022/03/08 00:36:51;;;;;;;12.50;8.90;;;;;;;;;;5033644;28;20231;-84
2022/03/08 00:39:18;;;;;;;14.87;9.53;;;;;;;;;;5033136;28;20206;-85
2022/03/08 00:41:47;;;;;;;11.50;9.00;;;;;;;;;;5031929;28;20306;-84
2022/03/08 00:44:14;;;;;;;15.20;8.63;;;;;;;;;;5033012;28;20214;-84
2022/03/08 00:46:41;;;;;;;12.70;8.93;;;;;;;;;;5031995;28;20234;-84
2022/03/08 00:49:08;;;;;;;13.77;9.23;;;;;;;;;;5032829;28;20259;-84
2022/03/08 00:51:35;;;;;;;14.00;10.27;;;;;;;;;;5031793;28;20249;-84
2022/03/08 00:54:02;;;;;;;16.57;10.00;;;;;;;;;;5032300;28;20218;-84
2022/03/08 00:56:29;;;;;;;12.93;9.80;;;;;;;;;;5032481;28;20238;-84
2022/03/08 00:58:57;;;;;;;16.87;10.03;;;;;;;;;;5034589;28;20671;-83
2022/03/08 01:01:24;;;;;;;13.23;9.50;;;;;;;;;;5037819;28;20238;-84
2022/03/08 01:03:51;;;;;;;14.63;9.57;;;;;;;;;;5033152;28;20332;-84
2022/03/08 01:06:19;;;;;;;13.30;9.30;;;;;;;;;;5031513;28;20292;-83
2022/03/08 01:08:46;;;;;;;16.30;10.10;;;;;;;;;;5032346;28;20277;-84
2022/03/08 01:11:13;;;;;;;15.23;10.03;;;;;;;;;;5031558;28;20761;-84
2022/03/08 01:13:40;;;;;;;18.50;10.27;;;;;;;;;;5032372;28;20712;-84
2022/03/08 01:16:08;;;;;;;12.30;8.57;;;;;;;;;;5031396;28;20242;-84
2022/03/08 01:18:35;;;;;;;13.77;9.33;;;;;;;;;;5032230;28;20206;-84
2022/03/08 01:21:02;;;;;;;14.33;9.37;;;;;;;;;;5031284;28;20246;-84
2022/03/08 01:23:29;;;;;;;15.70;9.70;;;;;;;;;;5032071;28;20659;-84
2022/03/08 01:25:56;;;;;;;10.87;9.40;;;;;;;;;;5032273;28;20226;-84
2022/03/08 01:28:23;;;;;;;14.33;9.63;;;;;;;;;;5036211;28;20211;-84
2022/03/08 01:30:50;;;;;;;11.80;9.30;;;;;;;;;;5035264;28;20249;-84
2022/03/08 01:33:19;;;;;;;12.50;10.03;;;;;;;;;;5035717;28;20206;-84
2022/03/08 01:35:46;;;;;;;12.80;8.77;;;;;;;;;;5035341;28;20242;-84
2022/03/08 01:38:13;;;;;;;15.63;10.23;;;;;;;;;;5035740;28;20671;-84
2022/03/08 01:40:40;;;;;;;14.73;9.97;;;;;;;;;;5035074;28;20234;-83
2022/03/08 01:43:07;;;;;;;14.60;10.20;;;;;;;;;;5035656;28;20206;-83
2022/03/08 01:45:34;;;;;;;14.00;10.37;;;;;;;;;;5035376;28;20579;-84
2022/03/08 01:48:01;;;;;;;16.27;9.70;;;;;;;;;;5035855;28;20577;-84
2022/03/08 01:50:29;;;;;;;12.83;9.03;;;;;;;;;;5035190;28;20230;-84
2022/03/08 01:52:57;;;;;;;12.37;8.77;;;;;;;;;;5035505;28;20215;-84
2022/03/08 01:55:25;;;;;;;13.13;9.60;;;;;;;;;;5034750;28;20241;-84
2022/03/08 01:57:52;;;;;;;14.87;9.40;;;;;;;;;;5035507;28;20213;-84
2022/03/08 02:00:21;;;;;;;14.13;9.17;;;;;;;;;;5033056;28;20242;-83
2022/03/08 02:02:48;;;;;;;13.20;9.40;;;;;;;;;;5030011;28;20194;-84
2022/03/08 02:05:15;;;;;;;16.00;10.30;;;;;;;;;;5030905;28;20614;-83
2022/03/08 02:07:44;;;;;;;16.50;8.67;;;;;;;;;;5035421;28;20610;-83
2022/03/08 02:10:11;;;;;;;10.70;8.17;;;;;;;;;;5035006;28;20317;-84
2022/03/08 02:12:38;;;;;;;12.43;9.07;;;;;;;;;;5035343;28;20211;-84
2022/03/08 02:15:15;;;;;;;17.23;9.63;;;;;;;;;;5034399;28;20237;-83
2022/03/08 02:17:43;;;;;;;11.27;9.03;;;;;;;;;;5035060;28;20202;-83
2022/03/08 02:20:10;;;;;;;14.07;8.93;;;;;;;;;;5034108;28;20241;-83
2022/03/08 02:22:40;;;;;;;16.87;9.40;;;;;;;;;;5035001;28;20584;-84
2022/03/08 02:25:07;;;;;;;13.77;9.33;;;;;;;;;;5034506;28;20234;-83
2022/03/08 02:27:35;;;;;;;19.50;9.00;;;;;;;;;;5034683;28;20199;-83
2022/03/08 02:30:02;;;;;;;14.83;9.63;;;;;;;;;;5034384;28;20242;-83
2022/03/08 02:32:29;;;;;;;13.17;9.50;;;;;;;;;;5034805;28;20217;-84
2022/03/08 02:34:56;;;;;;;14.53;10.13;;;;;;;;;;5033971;28;20207;-83
2022/03/08 02:37:23;;;;;;;13.77;8.67;;;;;;;;;;5033598;28;20686;-84
2022/03/08 02:39:53;;;;;;;15.77;9.50;;;;;;;;;;5034108;28;20210;-83
2022/03/08 02:42:20;;;;;;;15.80;9.77;;;;;;;;;;5034318;28;20214;-84
2022/03/08 02:44:47;;;;;;;13.43;8.97;;;;;;;;;;5033962;28;20256;-83
2022/03/08 02:47:14;;;;;;;13.23;9.40;;;;;;;;;;5034326;28;20694;-84
2022/03/08 02:49:41;;;;;;;12.13;9.73;;;;;;;;;;5033831;28;20280;-84
2022/03/08 02:52:08;;;;;;;14.03;10.00;;;;;;;;;;5014741;28;20257;-84
2022/03/08 02:54:35;;;;;;;14.10;9.37;;;;;;;;;;5014662;28;20219;-83
2022/03/08 02:57:04;;;;;;;13.67;9.77;;;;;;;;;;5013921;28;20889;-84
2022/03/08 02:59:31;;;;;;;18.67;10.67;;;;;;;;;;5014466;28;20261;-83
2022/03/08 03:01:58;;;;;;;11.23;9.10;;;;;;;;;;5013584;28;20243;-85
2022/03/08 03:04:25;;;;;;;13.13;8.77;;;;;;;;;;5015615;28;20203;-84
2022/03/08 03:06:52;;;;;;;15.77;9.63;;;;;;;;;;5033818;28;20226;-83
2022/03/08 03:09:19;;;;;;;13.23;9.40;;;;;;;;;;5034102;28;20576;-84
2022/03/08 03:11:46;;;;;;;11.33;8.83;;;;;;;;;;5033583;28;20235;-84
2022/03/08 03:14:14;;;;;;;12.07;8.80;;;;;;;;;;5035174;28;20225;-84
2022/03/08 03:16:41;;;;;;;13.73;9.03;;;;;;;;;;5033130;28;20234;-84
2022/03/08 03:19:09;;;;;;;13.77;9.33;;;;;;;;;;5033689;28;20671;-84
2022/03/08 03:21:36;;;;;;;12.27;8.73;;;;;;;;;;5033184;28;20264;-83
2022/03/08 03:24:03;;;;;;;12.77;8.70;;;;;;;;;;5033891;28;20221;-83
2022/03/08 03:26:30;;;;;;;11.80;8.87;;;;;;;;;;5033736;28;20644;-84
2022/03/08 03:28:57;;;;;;;14.23;9.77;;;;;;;;;;5033947;28;20245;-84
2022/03/08 03:31:26;;;;;;;10.47;8.73;;;;;;;;;;5033104;28;20245;-83
2022/03/08 03:33:53;;;;;;;13.50;8.73;;;;;;;;;;5033722;28;20263;-84
2022/03/08 03:36:20;;;;;;;17.83;8.33;;;;;;;;;;5016261;28;20237;-83
2022/03/08 03:38:47;;;;;;;14.20;8.97;;;;;;;;;;5033849;28;20214;-84
2022/03/08 03:41:14;;;;;;;14.17;8.67;;;;;;;;;;5032936;28;20311;-84
2022/03/08 03:43:41;;;;;;;14.27;8.83;;;;;;;;;;5033844;28;20210;-84
2022/03/08 03:46:08;;;;;;;11.17;8.30;;;;;;;;;;5033351;28;20245;-83
2022/03/08 03:48:37;;;;;;;17.00;10.03;;;;;;;;;;5033247;28;20217;-85
2022/03/08 03:51:04;;;;;;;13.80;9.50;;;;;;;;;;5032657;28;20875;-85
2022/03/08 03:53:31;;;;;;;13.50;8.93;;;;;;;;;;5033583;28;20230;-84
2022/03/08 03:55:58;;;;;;;11.70;8.37;;;;;;;;;;5032967;28;20299;-82
2022/03/08 03:58:25;;;;;;;10.07;8.17;;;;;;;;;;5033651;28;20580;-84
2022/03/08 04:00:52;;;;;;;11.93;8.50;;;;;;;;;;5033476;28;20661;-84
2022/03/08 04:03:19;;;;;;;14.17;9.00;;;;;;;;;;5033122;28;20737;-84
2022/03/08 04:05:48;;;;;;;15.03;8.63;;;;;;;;;;5032494;28;20238;-84
2022/03/08 04:08:17;;;;;;;11.80;8.73;;;;;;;;;;5033061;28;20658;-82
2022/03/08 04:10:46;;;;;;;13.73;8.83;;;;;;;;;;5033006;28;20239;-85
2022/03/08 04:13:13;;;;;;;13.70;8.17;;;;;;;;;;5033333;28;20199;-84
2022/03/08 04:15:40;;;;;;;12.70;8.67;;;;;;;;;;5032374;28;20236;-85
2022/03/08 04:18:07;;;;;;;14.17;8.73;;;;;;;;;;5033157;28;20233;-83
2022/03/08 04:20:34;;;;;;;16.23;8.43;;;;;;;;;;5032404;28;20309;-84
2022/03/08 04:23:03;;;;;;;13.03;8.80;;;;;;;;;;5013327;28;20607;-84
2022/03/08 04:25:30;;;;;;;12.10;9.10;;;;;;;;;;5012583;28;20233;-84
2022/03/08 04:27:57;;;;;;;13.80;9.23;;;;;;;;;;5013647;28;20210;-84
2022/03/08 04:30:24;;;;;;;13.13;9.33;;;;;;;;;;5013321;28;20373;-84
2022/03/08 04:32:51;;;;;;;12.87;8.37;;;;;;;;;;5013791;28;20215;-84
2022/03/08 04:35:18;;;;;;;11.03;8.60;;;;;;;;;;5014835;28;20639;-84
2022/03/08 04:37:45;;;;;;;11.73;8.67;;;;;;;;;;5015477;28;20227;-84
2022/03/08 04:40:14;;;;;;;13.63;9.03;;;;;;;;;;5013353;28;20697;-84
2022/03/08 04:42:41;;;;;;;14.33;8.67;;;;;;;;;;5014430;28;20286;-84
2022/03/08 04:45:13;;;;;;;11.20;8.80;;;;;;;;;;5012968;28;20241;-84
2022/03/08 04:47:40;;;;;;;13.17;8.50;;;;;;;;;;5013613;28;20193;-84
2022/03/08 04:50:09;;;;;;;12.27;9.13;;;;;;;;;;5015450;28;20240;-84
2022/03/08 04:55:43;;;;;;;10.83;8.70;;;;;;;;;;5022761;28;20270;-84
2022/03/08 04:58:10;;;;;;;11.63;8.07;;;;;;;;;;5032687;28;20216;-82
2022/03/08 05:00:37;;;;;;;14.67;8.43;;;;;;;;;;5031996;28;20236;-84
2022/03/08 05:03:04;;;;;;;11.97;9.00;;;;;;;;;;5032816;28;20213;-83
2022/03/08 05:05:33;;;;;;;14.50;9.03;;;;;;;;;;5032368;28;20231;-84
2022/03/08 05:08:00;;;;;;;11.33;9.37;;;;;;;;;;5032838;28;20210;-82
2022/03/08 05:10:28;;;;;;;13.80;9.80;;;;;;;;;;5019535;28;20333;-82
2022/03/08 05:12:56;;;;;;;13.40;9.53;;;;;;;;;;5031326;28;20680;-82
2022/03/08 05:15:23;;;;;;;16.40;10.53;;;;;;;;;;5031376;28;20240;-82
2022/03/08 05:17:50;;;;;;;16.70;10.00;;;;;;;;;;5031926;28;20282;-82
2022/03/08 05:20:17;;;;;;;18.67;10.47;;;;;;;;;;5026944;28;20243;-83
2022/03/08 05:22:44;;;;;;;15.50;10.50;;;;;;;;;;5021950;28;20206;-83
2022/03/08 05:25:11;;;;;;;15.83;11.50;;;;;;;;;;5015118;28;20237;-83
2022/03/08 05:27:38;;;;;;;14.23;10.70;;;;;;;;;;5029012;28;20240;-85
2022/03/08 05:30:08;;;;;;;17.97;10.90;;;;;;;;;;5030690;28;20263;-83
2022/03/08 05:32:35;;;;;;;17.83;10.50;;;;;;;;;;5034393;28;20198;-83
2022/03/08 05:35:02;;;;;;;14.37;9.23;;;;;;;;;;5036495;28;20236;-84
2022/03/08 05:37:29;;;;;;;13.90;8.77;;;;;;;;;;5033673;28;20237;-83
2022/03/08 05:39:56;;;;;;;12.33;9.03;;;;;;;;;;5032893;28;20212;-86
2022/03/08 05:42:23;;;;;;;10.60;8.87;;;;;;;;;;5031609;28;20213;-86
2022/03/08 05:44:50;;;;;;;14.20;8.80;;;;;;;;;;5033324;28;20205;-86
2022/03/08 05:47:19;;;;;;;12.13;8.70;;;;;;;;;;5033805;28;20212;-86
2022/03/08 05:49:46;;;;;;;10.90;8.30;;;;;;;;;;5042225;28;20216;-85
2022/03/08 05:52:13;;;;;;;15.90;9.10;;;;;;;;;;5033703;28;20223;-87
2022/03/08 05:54:40;;;;;;;12.40;8.83;;;;;;;;;;5032748;28;20252;-86
2022/03/08 05:57:07;;;;;;;13.67;8.47;;;;;;;;;;5028653;28;20342;-86
2022/03/08 05:59:34;;;;;;;11.13;8.10;;;;;;;;;;5033200;28;20256;-86
2022/03/08 06:05:06;;;;;;;13.07;8.83;;;;;;;;;;5028662;28;20231;-87
2022/03/08 06:07:33;;;;;;;12.67;10.10;;;;;;;;;;5032373;28;20254;-86
2022/03/08 06:10:00;;;;;;;15.60;9.47;;;;;;;;;;5032946;28;20286;-85
2022/03/08 06:12:27;;;;;;;13.87;9.07;;;;;;;;;;5032730;28;20606;-85
2022/03/08 06:14:54;;;;;;;16.43;10.37;;;;;;;;;;5035643;28;20213;-87
2022/03/08 06:17:21;;;;;;;16.03;10.47;;;;;;;;;;5033424;28;20248;-86
2022/03/08 06:19:48;;;;;;;14.47;9.70;;;;;;;;;;5030492;28;20590;-85
2022/03/08 06:22:23;;;;;;;13.87;9.23;;;;;;;;;;5024473;28;20238;-87
2022/03/08 06:24:50;;;;;;;12.77;9.90;;;;;;;;;;5033973;28;20212;-86
2022/03/08 06:27:17;;;;;;;15.27;10.43;;;;;;;;;;5035495;28;20204;-86
2022/03/08 06:29:44;;;;;;;12.53;9.63;;;;;;;;;;5034465;28;20267;-86
2022/03/08 06:32:11;;;;;;;18.10;10.37;;;;;;;;;;5034412;28;20233;-86
2022/03/08 06:34:38;;;;;;;12.90;9.37;;;;;;;;;;5033920;28;20709;-86
2022/03/08 06:37:06;;;;;;;16.27;10.00;;;;;;;;;;5035282;28;20234;-86
2022/03/08 06:39:34;;;;;;;15.93;10.63;;;;;;;;;;5035270;28;20193;-86
2022/03/08 06:42:01;;;;;;;17.87;11.90;;;;;;;;;;5038407;28;20257;-86
2022/03/08 06:44:28;;;;;;;13.73;9.60;;;;;;;;;;5034232;28;20212;-86
2022/03/08 06:46:55;;;;;;;18.80;10.07;;;;;;;;;;5035874;28;20233;-86
2022/03/08 06:49:22;;;;;;;13.60;10.50;;;;;;;;;;5035367;28;20194;-86
2022/03/08 07:00:21;;;;;;;21.40;10.47;;;;;;;;;;5048104;28;20292;-86
2022/03/08 07:02:49;;;;;;;18.90;11.17;;;;;;;;;;5056138;28;20312;-86
2022/03/08 07:05:16;;;;;;;14.57;11.27;;;;;;;;;;5075284;28;20219;-86
2022/03/08 07:07:43;;;;;;;15.47;11.80;;;;;;;;;;5076544;28;20222;-86
2022/03/08 07:10:10;;;;;;;19.13;10.70;;;;;;;;;;5070533;28;20228;-86
2022/03/08 07:12:37;;;;;;;15.27;11.10;;;;;;;;;;5054705;28;20248;-85
2022/03/08 07:15:06;;;;;;;17.90;10.83;;;;;;;;;;5054144;28;20241;-84
2022/03/08 07:17:34;;;;;;;15.90;11.03;;;;;;;;;;5045353;28;20333;-86
2022/03/08 07:20:01;;;;;;;14.87;11.17;;;;;;;;;;5034400;28;20234;-85
2022/03/08 07:22:28;;;;;;;14.60;10.70;;;;;;;;;;5035713;28;20217;-85
2022/03/08 07:24:55;;;;;;;19.27;11.50;;;;;;;;;;5040010;28;20206;-84
2022/03/08 07:27:22;;;;;;;14.87;10.33;;;;;;;;;;5038030;28;20284;-84
2022/03/08 07:29:49;;;;;;;18.87;10.77;;;;;;;;;;5035409;28;20218;-85
2022/03/08 07:32:16;;;;;;;17.27;10.93;;;;;;;;;;5035041;28;20209;-85
2022/03/08 07:34:45;;;;;;;18.97;11.43;;;;;;;;;;5034821;28;20272;-85
2022/03/08 07:37:12;;;;;;;18.63;10.53;;;;;;;;;;5034570;28;20727;-85
2022/03/08 07:39:41;;;;;;;23.03;11.73;;;;;;;;;;5035228;28;20225;-82
2022/03/08 07:42:08;;;;;;;21.23;12.33;;;;;;;;;;5036899;28;20218;-84
2022/03/08 07:44:36;;;;;;;26.80;11.97;;;;;;;;;;5034636;28;20210;-84
2022/03/08 07:47:04;;;;;;;17.27;11.63;;;;;;;;;;5018028;28;20223;-84
2022/03/08 07:49:31;;;;;;;15.93;12.00;;;;;;;;;;5033999;28;20685;-84
2022/03/08 07:51:59;;;;;;;16.20;11.47;;;;;;;;;;5024311;28;20309;-85
2022/03/08 07:54:26;;;;;;;16.53;10.80;;;;;;;;;;5013372;28;20708;-84
2022/03/08 07:56:54;;;;;;;17.50;11.10;;;;;;;;;;5012653;28;20741;-84
2022/03/08 07:59:21;;;;;;;15.33;11.40;;;;;;;;;;5013256;28;20693;-83
2022/03/08 08:01:48;;;;;;;17.77;11.37;;;;;;;;;;5013371;28;20235;-83
2022/03/08 08:04:15;;;;;;;14.93;10.93;;;;;;;;;;5032499;28;20548;-83
2022/03/08 08:06:42;;;;;;;15.13;10.60;;;;;;;;;;5052282;28;20651;-83
2022/03/08 08:09:12;;;;;;;18.90;11.80;;;;;;;;;;5052292;28;20233;-83
2022/03/08 08:11:39;;;;;;;14.57;11.10;;;;;;;;;;5044021;28;20226;-83
2022/03/08 08:14:06;;;;;;;18.07;11.17;;;;;;;;;;5032473;28;20693;-86
2022/03/08 08:16:33;;;;;;;12.43;9.90;;;;;;;;;;5033452;28;20241;-85
2022/03/08 08:19:00;;;;;;;14.03;10.20;;;;;;;;;;5033108;28;20596;-84
2022/03/08 08:21:27;;;;;;;15.93;10.77;;;;;;;;;;5032013;28;20238;-84
2022/03/08 08:23:55;;;;;;;13.07;10.00;;;;;;;;;;5030220;28;20214;-83
2022/03/08 08:26:23;;;;;;;17.37;10.97;;;;;;;;;;5031509;28;20238;-83
2022/03/08 08:28:50;;;;;;;11.93;9.70;;;;;;;;;;5043086;28;20233;-84
2022/03/08 08:31:17;;;;;;;14.50;10.50;;;;;;;;;;5038256;28;20230;-83
2022/03/08 08:33:44;;;;;;;12.63;9.93;;;;;;;;;;5041134;28;20210;-83
2022/03/08 08:36:12;;;;;;;13.90;10.47;;;;;;;;;;5043075;28;20253;-83
2022/03/08 08:38:40;;;;;;;15.60;10.00;;;;;;;;;;5038322;28;20241;-83
2022/03/08 08:41:07;;;;;;;13.83;10.47;;;;;;;;;;5060038;28;20279;-83
2022/03/08 08:43:35;;;;;;;14.03;9.57;;;;;;;;;;5074390;28;20270;-83
2022/03/08 08:46:02;;;;;;;13.67;9.07;;;;;;;;;;5072789;28;20234;-83
2022/03/08 08:48:29;;;;;;;15.73;9.47;;;;;;;;;;5073811;28;20213;-83
2022/03/08 08:50:56;;;;;;;12.10;9.23;;;;;;;;;;5074744;28;20235;-83
2022/03/08 08:53:24;;;;;;;11.97;8.97;;;;;;;;;;5040431;28;20205;-84
2022/03/08 08:55:51;;;;;;;10.63;8.77;;;;;;;;;;5017394;28;20256;-84
2022/03/08 08:58:18;;;;;;;11.20;9.27;;;;;;;;;;5035343;28;20299;-83
2022/03/08 09:00:46;;;;;;;10.13;9.03;;;;;;;;;;5034229;28;20232;-85
2022/03/08 09:03:16;;;;;;;11.37;8.37;;;;;;;;;;5034117;28;20220;-86
2022/03/08 09:05:43;;;;;;;10.30;8.60;;;;;;;;;;5032180;28;20236;-86
2022/03/08 09:08:11;;;;;;;11.80;9.13;;;;;;;;;;5033135;28;20229;-86
2022/03/08 09:10:38;;;;;;;9.93;8.00;;;;;;;;;;5032044;28;20230;-86
2022/03/08 09:13:05;;;;;;;9.17;8.13;;;;;;;;;;5032214;28;20198;-85
2022/03/08 09:15:32;;;;;;;13.63;8.53;;;;;;;;;;5015951;28;20233;-86
2022/03/08 09:18:05;;;;;;;11.43;8.33;;;;;;;;;;5031208;28;20230;-85
2022/03/08 09:20:32;;;;;;;10.03;7.87;;;;;;;;;;5032370;28;20226;-84
2022/03/08 09:22:59;;;;;;;9.53;7.10;;;;;;;;;;5034265;28;20223;-85
2022/03/08 09:25:26;;;;;;;10.87;7.80;;;;;;;;;;5033081;28;20235;-84
2022/03/08 09:27:54;;;;;;;8.27;7.47;;;;;;;;;;5033030;28;20226;-84
2022/03/08 09:30:21;;;;;;;11.27;6.63;;;;;;;;;;5033113;28;20215;-84
2022/03/08 09:32:48;;;;;;;9.23;6.77;;;;;;;;;;5032808;28;20203;-85
2022/03/08 09:35:17;;;;;;;8.67;6.37;;;;;;;;;;5022382;28;20245;-86
2022/03/08 09:37:44;;;;;;;10.13;6.73;;;;;;;;;;5015597;28;20726;-86
2022/03/08 09:40:11;;;;;;;10.67;6.90;;;;;;;;;;5015957;28;20242;-86
2022/03/08 09:42:38;;;;;;;7.17;6.43;;;;;;;;;;5014365;28;20211;-86
2022/03/08 09:45:06;;;;;;;8.67;6.90;;;;;;;;;;5013906;28;20236;-86
2022/03/08 09:47:33;;;;;;;7.30;5.80;;;;;;;;;;5018669;28;20227;-87
2022/03/08 09:50:00;;;;;;;6.07;5.43;;;;;;;;;;5025274;28;20238;-85
2022/03/08 09:52:29;;;;;;;8.83;6.60;;;;;;;;;;5019621;28;20203;-86
2022/03/08 09:54:56;;;;;;;6.23;5.63;;;;;;;;;;5018476;28;20217;-86
2022/03/08 09:57:23;;;;;;;3.27;3.03;;;;;;;;;;5018328;28;20226;-85
2022/03/08 09:59:50;;;;;;;3.43;3.13;;;;;;;;;;5016414;28;20222;-85
2022/03/08 10:02:17;;;;;;;5.03;4.20;;;;;;;;;;5017612;28;20206;-87
2022/03/08 10:04:44;;;;;;;6.43;4.40;;;;;;;;;;5038458;28;20202;-85
2022/03/08 10:07:12;;;;;;;8.23;5.60;;;;;;;;;;5036236;28;20237;-85
2022/03/08 10:09:41;;;;;;;4.87;4.00;;;;;;;;;;5036241;28;20649;-85
2022/03/08 10:12:15;;;;;;;5.87;5.27;;;;;;;;;;5041449;28;20210;-86
2022/03/08 10:14:43;;;;;;;6.20;4.63;;;;;;;;;;5039924;28;20210;-85
2022/03/08 10:17:11;;;;;;;4.63;4.20;;;;;;;;;;5041656;28;20223;-86
2022/03/08 10:19:45;;;;;;;3.87;3.57;;;;;;;;;;5035600;28;20207;-86
2022/03/08 10:22:24;;;;;;;4.73;3.73;;;;;;;;;;5037347;28;20238;-86
2022/03/08 10:24:52;;;;;;;7.23;4.70;;;;;;;;;;5035225;28;20210;-86
2022/03/08 10:27:20;;;;;;;9.67;5.23;;;;;;;;;;5030051;28;20725;-85
2022/03/08 10:29:49;;;;;;;4.60;4.20;;;;;;;;;;5016881;28;20233;-87
2022/03/08 10:32:18;;;;;;;4.67;4.27;;;;;;;;;;5020211;28;20207;-86
2022/03/08 10:34:46;;;;;;;7.33;5.03;;;;;;;;;;5035332;28;20656;-86
2022/03/08 10:37:19;;;;;;;5.33;4.37;;;;;;;;;;5034663;28;20239;-86
2022/03/08 10:39:50;;;;;;;5.67;4.50;;;;;;;;;;5035712;28;20193;-87
2022/03/08 10:42:21;;;;;;;5.00;4.40;;;;;;;;;;5024318;28;20568;-87
2022/03/08 10:44:48;;;;;;;10.07;4.57;;;;;;;;;;5016098;28;20302;-86
2022/03/08 10:47:16;;;;;;;8.37;4.57;;;;;;;;;;5015093;28;20231;-87
2022/03/08 10:49:51;;;;;;;5.50;4.40;;;;;;;;;;5015791;28;20577;-87
2022/03/08 10:52:18;;;;;;;6.93;4.27;;;;;;;;;;5023278;28;20265;-87
2022/03/08 10:54:45;;;;;;;4.83;4.27;;;;;;;;;;5016369;28;20576;-87
2022/03/08 10:57:12;;;;;;;4.10;3.70;;;;;;;;;;5015464;28;20231;-87
2022/03/08 10:59:54;;;;;;;6.57;4.00;;;;;;;;;;5018045;28;20215;-85
2022/03/08 11:02:21;;;;;;;5.43;4.60;;;;;;;;;;5016876;28;20211;-87
2022/03/08 11:04:48;;;;;;;6.17;4.37;;;;;;;;;;5014000;28;20676;-88
2022/03/08 11:07:15;;;;;;;4.60;4.07;;;;;;;;;;5017136;28;20269;-87
2022/03/08 11:09:43;;;;;;;4.17;3.60;;;;;;;;;;5014510;28;20223;-87
2022/03/08 11:12:10;;;;;;;4.33;3.80;;;;;;;;;;5035556;28;20579;-87
2022/03/08 11:14:37;;;;;;;5.13;3.57;;;;;;;;;;5034251;28;20207;-87
2022/03/08 11:17:06;;;;;;;7.40;4.17;;;;;;;;;;5034128;28;20203;-87
2022/03/08 11:19:33;;;;;;;8.03;4.33;;;;;;;;;;5034602;28;20207;-86
2022/03/08 11:22:00;;;;;;;5.60;3.93;;;;;;;;;;5033483;28;20230;-85
2022/03/08 11:24:28;;;;;;;5.27;4.23;;;;;;;;;;5034242;28;20703;-85
2022/03/08 11:26:56;;;;;;;4.73;3.90;;;;;;;;;;5033831;28;20233;-85
2022/03/08 11:29:24;;;;;;;4.03;3.63;;;;;;;;;;5034419;28;20230;-85
2022/03/08 11:31:53;;;;;;;8.43;4.20;;;;;;;;;;5031010;28;20591;-85
2022/03/08 11:34:25;;;;;;;5.80;3.70;;;;;;;;;;5025645;28;20214;-87
2022/03/08 11:36:58;;;;;;;4.40;3.83;;;;;;;;;;5034646;28;20269;-87
2022/03/08 11:39:26;;;;;;;4.00;3.57;;;;;;;;;;5035519;28;20206;-87
2022/03/08 11:41:54;;;;;;;3.37;3.10;;;;;;;;;;5034067;28;20241;-88
2022/03/08 11:44:22;;;;;;;4.77;4.20;;;;;;;;;;5034804;28;20215;-88
2022/03/08 11:46:59;;;;;;;5.23;4.20;;;;;;;;;;5017176;28;20234;-88
2022/03/08 11:49:40;;;;;;;4.30;3.90;;;;;;;;;;5015585;28;20293;-88
2022/03/08 11:52:11;;;;;;;3.77;3.47;;;;;;;;;;5014874;28;20227;-87
2022/03/08 11:54:38;;;;;;;5.37;3.90;;;;;;;;;;5023318;28;20214;-88
2022/03/08 11:57:05;;;;;;;6.67;4.27;;;;;;;;;;5034568;28;20206;-87
2022/03/08 11:59:32;;;;;;;7.00;3.73;;;;;;;;;;5036097;28;20229;-87
2022/03/08 12:02:02;;;;;;;4.70;3.83;;;;;;;;;;5033756;28;20639;-87
2022/03/08 12:04:29;;;;;;;6.77;4.30;;;;;;;;;;5034650;28;20552;-87
2022/03/08 12:07:00;;;;;;;4.67;3.93;;;;;;;;;;5033418;28;20238;-87
2022/03/08 12:09:28;;;;;;;4.93;4.10;;;;;;;;;;5034826;28;20760;-87
2022/03/08 12:12:00;;;;;;;6.80;3.90;;;;;;;;;;5032708;28;20238;-87
2022/03/08 12:14:29;;;;;;;4.10;3.70;;;;;;;;;;5035961;28;20194;-87
2022/03/08 12:17:07;;;;;;;5.67;4.03;;;;;;;;;;5034923;28;20776;-88
2022/03/08 12:19:35;;;;;;;5.27;3.90;;;;;;;;;;5033988;28;20210;-88
2022/03/08 12:22:03;;;;;;;3.93;3.50;;;;;;;;;;5032425;28;20245;-87
2022/03/08 12:24:39;;;;;;;6.87;3.97;;;;;;;;;;5032450;28;20214;-88
2022/03/08 12:27:08;;;;;;;5.33;3.70;;;;;;;;;;5032481;28;20238;-89
2022/03/08 12:29:36;;;;;;;9.57;3.90;;;;;;;;;;5033086;28;20228;-88
2022/03/08 12:32:10;;;;;;;3.57;3.27;;;;;;;;;;5032761;28;20219;-88
2022/03/08 12:34:39;;;;;;;4.33;3.90;;;;;;;;;;5031989;28;20709;-88
2022/03/08 12:37:10;;;;;;;5.90;3.83;;;;;;;;;;5032953;28;20277;-88
2022/03/08 12:39:50;;;;;;;4.40;4.00;;;;;;;;;;5032347;28;20199;-88
2022/03/08 12:42:21;;;;;;;4.77;3.80;;;;;;;;;;5033672;28;20194;-88
2022/03/08 12:44:55;;;;;;;5.67;3.40;;;;;;;;;;5037265;28;20829;-88
2022/03/08 12:47:22;;;;;;;4.77;3.20;;;;;;;;;;5033537;28;20754;-87
2022/03/08 12:49:50;;;;;;;3.70;3.40;;;;;;;;;;5031505;28;20214;-88
2022/03/08 12:52:19;;;;;;;7.27;3.50;;;;;;;;;;5031967;28;20195;-89
2022/03/08 12:54:47;;;;;;;5.63;3.87;;;;;;;;;;5032098;28;20229;-88
2022/03/08 12:57:15;;;;;;;6.17;3.80;;;;;;;;;;5037280;28;20226;-87
2022/03/08 12:59:43;;;;;;;4.80;3.57;;;;;;;;;;5014360;28;20220;-88
2022/03/08 13:02:10;;;;;;;6.10;3.60;;;;;;;;;;5013513;28;20274;-87
2022/03/08 13:04:37;;;;;;;5.10;3.60;;;;;;;;;;5013097;28;20217;-88
2022/03/08 13:07:11;;;;;;;4.40;3.57;;;;;;;;;;5012876;28;20282;-88
2022/03/08 13:09:53;;;;;;;3.93;3.50;;;;;;;;;;5013035;28;20577;-88
2022/03/08 13:12:24;;;;;;;4.80;3.90;;;;;;;;;;5013246;28;20704;-88
2022/03/08 13:15:10;;;;;;;5.57;3.20;;;;;;;;;;5011997;28;20196;-87
2022/03/08 13:17:49;;;;;;;6.57;3.55;;;;;;;;;;5013357;28;20250;-88
2022/03/08 13:20:24;;;;;;;6.10;3.70;;;;;;;;;;5013542;28;20234;-87
2022/03/08 13:22:51;;;;;;;4.20;3.40;;;;;;;;;;5016783;28;20702;-88
2022/03/08 13:25:19;;;;;;;4.22;3.50;;;;;;;;;;5016397;28;20230;-87
2022/03/08 13:28:00;;;;;;;4.40;4.00;;;;;;;;;;5017211;28;20281;-88
2022/03/08 13:30:28;;;;;;;6.05;3.60;;;;;;;;;;5017368;28;20703;-88
2022/03/08 13:33:25;;;;;;;3.80;3.40;;;;;;;;;;5017691;28;20212;-88
2022/03/08 13:35:57;;;;;;;5.38;3.70;;;;;;;;;;5017572;28;20246;-88
2022/03/08 13:38:25;;;;;;;5.20;3.30;;;;;;;;;;5018119;28;20238;-88
2022/03/08 13:40:54;;;;;;;3.88;3.47;;;;;;;;;;5016742;28;20235;-88
2022/03/08 13:43:23;;;;;;;4.50;3.35;;;;;;;;;;5020435;28;20218;-88
2022/03/08 13:45:50;;;;;;;7.03;3.45;;;;;;;;;;5037138;28;20237;-87
2022/03/08 13:48:18;;;;;;;4.63;3.42;;;;;;;;;;5037300;28;20226;-87
2022/03/08 13:50:47;;;;;;;4.78;3.45;;;;;;;;;;5037091;28;20245;-87
2022/03/08 13:53:14;;;;;;;4.05;3.45;;;;;;;;;;5037190;28;20215;-87
2022/03/08 13:55:42;;;;;;;4.07;3.75;;;;;;;;;;5036494;28;20396;-87
2022/03/08 13:58:15;;;;;;;4.65;3.10;;;;;;;;;;5037369;28;20227;-87
2022/03/08 14:00:42;;;;;;;3.58;3.15;;;;;;;;;;5050851;28;20241;-87
2022/03/08 14:03:10;;;;;;;5.10;3.30;;;;;;;;;;5043509;28;20190;-85
2022/03/08 14:05:51;;;;;;;7.22;3.30;;;;;;;;;;5041251;28;20234;-86
2022/03/08 14:08:25;;;;;;;4.22;3.33;;;;;;;;;;5036562;28;20230;-86
2022/03/08 14:10:53;;;;;;;4.32;3.03;;;;;;;;;;5036363;28;20237;-86
2022/03/08 14:13:22;;;;;;;3.42;3.10;;;;;;;;;;5036592;28;20229;-87
2022/03/08 14:15:59;;;;;;;4.53;3.10;;;;;;;;;;5035701;28;20246;-86
2022/03/08 14:18:27;;;;;;;3.15;2.65;;;;;;;;;;5037327;28;20230;-86
2022/03/08 14:20:54;;;;;;;4.25;3.17;;;;;;;;;;5045883;28;20239;-86
2022/03/08 14:23:23;;;;;;;6.25;3.17;;;;;;;;;;5048033;28;20214;-85
2022/03/08 14:26:01;;;;;;;7.47;3.38;;;;;;;;;;5038020;28;20234;-86
2022/03/08 14:28:41;;;;;;;3.60;3.22;;;;;;;;;;5036776;28;20611;-87
2022/03/08 14:31:15;;;;;;;6.53;3.63;;;;;;;;;;5035933;28;20695;-87
2022/03/08 14:33:52;;;;;;;3.70;2.97;;;;;;;;;;5035435;28;20195;-86
2022/03/08 14:36:33;;;;;;;4.50;3.10;;;;;;;;;;5035671;28;20268;-87
2022/03/08 14:39:00;;;;;;;3.15;2.92;;;;;;;;;;5014824;28;20237;-84
2022/03/08 14:41:27;;;;;;;3.90;3.33;;;;;;;;;;5016681;28;20645;-85
2022/03/08 14:43:56;;;;;;;3.30;2.78;;;;;;;;;;5015417;28;20212;-86
2022/03/08 14:46:23;;;;;;;3.97;3.17;;;;;;;;;;5014779;28;20274;-86
2022/03/08 14:48:50;;;;;;;3.40;3.10;;;;;;;;;;5015263;28;20242;-87
2022/03/08 14:51:17;;;;;;;4.63;3.08;;;;;;;;;;5014581;28;20239;-85